createdAt,value
2023-03-30T00:02:10.728Z,96728.88
2023-03-30T00:07:31.550Z,96720.75
2023-03-30T00:12:52.917Z,96709.78
2023-03-30T00:18:14.519Z,96716.63
2023-03-30T00:23:35.572Z,96730.16
2023-03-30T00:28:56.132Z,96722.88
2023-03-30T00:34:16.993Z,96732.41
2023-03-30T00:39:37.565Z,96730.75
2023-03-30T00:45:21.566Z,96736.44
2023-03-30T00:50:50.846Z,96720.50
2023-03-30T00:56:14.904Z,96701.56
2023-03-30T01:01:39.583Z,96696.84
2023-03-30T01:07:01.178Z,96692.72
2023-03-30T01:12:21.889Z,96683.03
2023-03-30T01:18:24.186Z,96681.63
2023-03-30T01:24:07.822Z,96680.22
2023-03-30T01:30:08.491Z,96678.66
2023-03-30T01:35:32.312Z,96658.75
2023-03-30T01:41:09.846Z,96655.94
2023-03-30T01:46:40.400Z,96651.72
2023-03-30T01:52:11.076Z,96629.47
2023-03-30T01:57:36.049Z,96627.94
2023-03-30T02:03:05.668Z,96611.91
2023-03-30T02:08:31.259Z,96623.69
2023-03-30T02:13:55.242Z,96613.44
2023-03-30T02:19:17.113Z,96596.03
2023-03-30T02:24:38.176Z,96601.44
2023-03-30T02:29:59.034Z,96613.31
2023-03-30T02:35:38.969Z,96617.69
2023-03-30T02:41:26.497Z,96603.19
2023-03-30T02:46:59.952Z,96564.34
2023-03-30T02:52:36.975Z,96532.22
2023-03-30T02:58:23.766Z,96530.94
2023-03-30T03:03:59.403Z,96539.75
2023-03-30T03:09:26.083Z,96518.66
2023-03-30T03:14:46.979Z,96523.84
2023-03-30T03:20:10.690Z,96502.88
2023-03-30T03:25:31.689Z,96496.66
2023-03-30T03:30:58.445Z,96493.22
2023-03-30T03:36:19.624Z,96467.00
2023-03-30T03:41:44.862Z,96467.38
2023-03-30T03:47:05.493Z,96470.91
2023-03-30T03:52:26.686Z,96460.41
2023-03-30T03:57:47.316Z,96457.09
2023-03-30T04:03:09.220Z,96443.59
2023-03-30T04:08:30.523Z,96450.31
2023-03-30T04:13:59.470Z,96452.63
2023-03-30T04:19:42.857Z,96440.06
2023-03-30T04:25:25.968Z,96450.41
2023-03-30T04:31:22.896Z,96435.91
2023-03-30T04:37:03.946Z,96431.44
2023-03-30T04:42:30.801Z,96434.97
2023-03-30T04:48:13.551Z,96427.06
2023-03-30T04:54:12.492Z,96442.28
2023-03-30T05:00:12.335Z,96441.56
2023-03-30T05:05:56.115Z,96449.78
2023-03-30T05:11:35.810Z,96454.84
2023-03-30T05:17:19.721Z,96438.97
2023-03-30T05:23:07.988Z,96447.31
2023-03-30T05:28:48.867Z,96441.47
2023-03-30T05:34:18.969Z,96448.66
2023-03-30T05:39:56.103Z,96449.34
2023-03-30T05:45:35.976Z,96438.50
2023-03-30T05:51:15.983Z,96440.84
2023-03-30T05:56:54.182Z,96436.53
2023-03-30T06:02:35.587Z,96436.84
2023-03-30T06:08:01.046Z,96448.41
2023-03-30T06:13:22.412Z,96443.38
2023-03-30T06:18:46.959Z,96448.63
2023-03-30T06:24:09.327Z,96445.75
2023-03-30T06:29:32.901Z,96457.28
2023-03-30T06:34:54.111Z,96473.84
2023-03-30T06:40:19.171Z,96467.81
2023-03-30T06:45:44.310Z,96470.69
2023-03-30T06:51:06.751Z,96464.75
2023-03-30T06:56:28.068Z,96458.47
2023-03-30T07:02:18.047Z,96462.31
2023-03-30T07:07:59.682Z,96460.97
2023-03-30T07:13:21.318Z,96456.03
2023-03-30T07:18:43.584Z,96454.38
2023-03-30T07:24:04.476Z,96469.25
2023-03-30T07:29:29.648Z,96478.34
2023-03-30T07:34:51.330Z,96473.75
2023-03-30T07:40:13.111Z,96476.91
2023-03-30T07:45:36.098Z,96464.16
2023-03-30T07:51:06.893Z,96466.91
2023-03-30T07:56:33.552Z,96476.50
2023-03-30T08:01:56.326Z,96469.91
2023-03-30T08:07:39.833Z,96461.28
2023-03-30T08:13:12.612Z,96444.69
2023-03-30T08:18:33.821Z,96440.47
2023-03-30T08:23:57.978Z,96433.34
2023-03-30T08:29:19.405Z,96424.16
2023-03-30T08:34:40.824Z,96425.94
2023-03-30T08:40:01.979Z,96416.47
2023-03-30T08:45:23.113Z,96404.44
2023-03-30T08:51:07.175Z,96386.63
2023-03-30T08:57:03.460Z,96381.00
2023-03-30T09:02:31.144Z,96383.69
2023-03-30T09:08:06.425Z,96368.75
2023-03-30T09:13:36.456Z,96356.69
2023-03-30T09:19:01.688Z,96350.28
2023-03-30T09:24:26.349Z,96361.13
2023-03-30T09:29:49.246Z,96375.22
2023-03-30T09:35:13.369Z,96372.78
2023-03-30T09:40:47.521Z,96380.88
2023-03-30T09:46:09.447Z,96395.41
2023-03-30T09:51:31.390Z,96378.88
2023-03-30T09:56:54.573Z,96373.66
2023-03-30T10:02:18.139Z,96364.03
2023-03-30T10:07:41.999Z,96371.81
2023-03-30T10:13:12.257Z,96389.31
2023-03-30T10:18:45.062Z,96412.91
2023-03-30T10:24:22.307Z,96448.91
2023-03-30T10:29:50.312Z,96458.75
2023-03-30T10:35:11.443Z,96461.91
2023-03-30T10:40:39.202Z,96475.63
2023-03-30T10:46:27.851Z,96477.38
2023-03-30T10:52:01.150Z,96492.03
2023-03-30T10:57:32.531Z,96494.22
2023-03-30T11:03:12.845Z,96484.72
2023-03-30T11:08:43.131Z,96487.03
2023-03-30T11:14:12.646Z,96481.41
2023-03-30T11:19:42.528Z,96488.53
2023-03-30T11:25:16.691Z,96476.47
2023-03-30T11:30:39.258Z,96473.44
2023-03-30T11:36:23.653Z,96456.34
2023-03-30T11:42:28.769Z,96459.22
2023-03-30T11:48:27.121Z,96450.13
2023-03-30T11:54:21.959Z,96434.06
2023-03-30T11:59:56.397Z,96425.53
2023-03-30T12:05:27.995Z,96423.59
2023-03-30T12:10:54.654Z,96405.09
2023-03-30T12:16:29.148Z,96387.38
2023-03-30T12:22:04.608Z,96361.78
2023-03-30T12:27:29.119Z,96362.56
2023-03-30T12:33:11.546Z,96365.41
2023-03-30T12:38:43.613Z,96359.47
2023-03-30T12:44:23.178Z,96336.69
2023-03-30T12:50:06.811Z,96344.88
2023-03-30T12:55:27.509Z,96326.88
2023-03-30T13:01:01.206Z,96309.59
2023-03-30T13:06:24.244Z,96297.41
2023-03-30T13:11:56.981Z,96282.28
2023-03-30T13:17:22.229Z,96262.09
2023-03-30T13:22:59.491Z,96266.34
2023-03-30T13:28:35.726Z,96272.19
2023-03-30T13:34:23.385Z,96270.13
2023-03-30T13:39:55.772Z,96245.50
2023-03-30T13:45:43.224Z,96246.53
2023-03-30T13:51:04.745Z,96260.75
2023-03-30T13:56:27.408Z,96243.47
2023-03-30T14:01:57.361Z,96249.66
2023-03-30T14:07:19.867Z,96247.34
2023-03-30T14:12:41.758Z,96252.56
2023-03-30T14:18:05.287Z,96242.97
2023-03-30T14:23:38.109Z,96241.84
2023-03-30T14:29:03.371Z,96236.91
2023-03-30T14:34:28.187Z,96230.72
2023-03-30T14:39:55.491Z,96229.56
2023-03-30T14:45:18.928Z,96206.88
2023-03-30T14:50:40.014Z,96210.63
2023-03-30T14:56:01.487Z,96206.38
2023-03-30T15:01:31.047Z,96215.34
2023-03-30T15:06:53.520Z,96210.81
2023-03-30T15:12:29.808Z,96217.97
2023-03-30T15:17:51.491Z,96209.66
2023-03-30T15:23:13.942Z,96196.84
2023-03-30T15:28:44.320Z,96189.03
2023-03-30T15:34:14.300Z,96200.06
2023-03-30T15:39:36.374Z,96193.69
2023-03-30T15:45:09.792Z,96172.13
2023-03-30T15:50:30.614Z,96185.72
2023-03-30T15:55:52.192Z,96188.31
2023-03-30T16:01:16.827Z,96191.91
2023-03-30T16:06:37.744Z,96202.84
2023-03-30T16:11:58.514Z,96206.91
2023-03-30T16:17:19.638Z,96223.41
2023-03-30T16:22:40.633Z,96209.53
2023-03-30T16:28:01.629Z,96199.41
2023-03-30T16:33:22.272Z,96183.41
2023-03-30T16:38:43.494Z,96166.78
2023-03-30T16:44:04.106Z,96185.00
2023-03-30T16:49:26.232Z,96186.34
2023-03-30T16:54:47.138Z,96191.22
2023-03-30T17:00:15.355Z,96191.56
2023-03-30T17:05:36.885Z,96227.44
2023-03-30T17:11:01.445Z,96228.91
2023-03-30T17:16:25.175Z,96225.16
2023-03-30T17:21:46.297Z,96211.91
2023-03-30T17:27:07.013Z,96216.78
2023-03-30T17:32:27.814Z,96233.72
2023-03-30T17:37:49.999Z,96225.38
2023-03-30T17:43:11.276Z,96220.28
2023-03-30T17:48:32.265Z,96217.00
2023-03-30T17:53:53.335Z,96220.44
2023-03-30T17:59:14.106Z,96243.19
2023-03-30T18:04:35.235Z,96274.50
2023-03-30T18:09:56.245Z,96351.38
2023-03-30T18:15:19.847Z,96355.53
2023-03-30T18:20:43.965Z,96356.94
2023-03-30T18:26:10.285Z,96357.31
2023-03-30T18:31:32.316Z,96351.75
2023-03-30T18:36:53.207Z,96341.13
2023-03-30T18:42:13.849Z,96344.97
2023-03-30T18:47:34.559Z,96351.13
2023-03-30T18:52:55.355Z,96340.16
2023-03-30T18:58:21.187Z,96328.38
2023-03-30T19:03:42.850Z,96323.47
2023-03-30T19:09:03.582Z,96333.72
2023-03-30T19:14:24.094Z,96341.13
2023-03-30T19:19:44.867Z,96347.00
2023-03-30T19:25:06.405Z,96350.44
2023-03-30T19:30:27.518Z,96364.94
2023-03-30T19:35:48.660Z,96359.34
2023-03-30T19:41:09.542Z,96372.63
2023-03-30T19:46:30.693Z,96367.69
2023-03-30T19:51:51.480Z,96365.09
2023-03-30T19:57:12.731Z,96366.06
2023-03-30T20:02:33.675Z,96368.06
2023-03-30T20:07:54.381Z,96380.00
2023-03-30T20:13:17.025Z,96387.13
2023-03-30T20:18:40.293Z,96380.97
2023-03-30T20:24:01.010Z,96378.25
2023-03-30T20:29:21.619Z,96378.94
2023-03-30T20:34:42.581Z,96379.88
2023-03-30T20:40:09.980Z,96384.34
2023-03-30T20:45:31.780Z,96391.44
2023-03-30T20:50:56.295Z,96384.31
2023-03-30T20:56:17.806Z,96377.25
2023-03-30T21:01:41.321Z,96381.06
2023-03-30T21:07:02.364Z,96376.97
2023-03-30T21:12:23.125Z,96378.34
2023-03-30T21:17:43.889Z,96367.13
2023-03-30T21:23:04.581Z,96381.06
2023-03-30T21:28:29.630Z,96365.63
2023-03-30T21:33:50.683Z,96359.47
2023-03-30T21:39:11.633Z,96366.31
2023-03-30T21:44:36.387Z,96373.44
2023-03-30T21:49:57.396Z,96373.16
2023-03-30T21:55:18.164Z,96375.47
2023-03-30T22:00:38.823Z,96370.00
2023-03-30T22:06:01.883Z,96362.06
2023-03-30T22:11:25.451Z,96370.56
2023-03-30T22:16:46.922Z,96364.25
2023-03-30T22:22:07.992Z,96355.34
2023-03-30T22:27:28.682Z,96354.13
2023-03-30T22:32:49.480Z,96355.09
2023-03-30T22:38:11.362Z,96343.34
2023-03-30T22:43:32.801Z,96339.09
2023-03-30T22:48:55.703Z,96340.31
2023-03-30T22:54:18.258Z,96338.41
2023-03-30T22:59:39.098Z,96333.19
2023-03-30T23:05:01.498Z,96337.84
2023-03-30T23:10:25.456Z,96335.53
2023-03-30T23:15:48.570Z,96328.28
2023-03-30T23:21:11.247Z,96324.19
2023-03-30T23:26:32.416Z,96326.66
2023-03-30T23:31:53.366Z,96314.88
2023-03-30T23:37:14.081Z,96304.75
2023-03-30T23:42:34.829Z,96312.03
2023-03-30T23:47:55.853Z,96306.03
2023-03-30T23:53:16.559Z,96299.56
2023-03-30T23:58:37.221Z,96292.34
